Time;durP1;ratioP1;P1;durP2;ratioP2;P2;SDS_P1;SDS_P2;PMS_P1;PMS_P2;Temp;Humidity;BMP_temperature;BMP_pressure;BME280_temperature;BME280_humidity;BME280_pressure;Samples;Min_cycle;Max_cycle;Signal;HPM_P1;HPM_P2
2024/01/24 00:00:15;;;;;;;5.30;1.30;;;7.50;19.90;;;;;;5049789;28;20462;-66
2024/01/24 00:02:44;;;;;;;6.17;1.60;;;7.50;19.80;;;;;;5049434;28;20461;-66
2024/01/24 00:05:11;;;;;;;4.17;1.00;;;7.50;19.80;;;;;;5041771;28;20531;-66
2024/01/24 00:07:38;;;;;;;4.13;1.27;;;7.50;19.80;;;;;;5049137;28;21041;-66
2024/01/24 00:10:06;;;;;;;5.47;1.40;;;7.60;19.80;;;;;;5047615;28;20481;-66
2024/01/24 00:12:32;;;;;;;5.77;1.00;;;7.60;19.70;;;;;;5046532;28;20462;-66
2024/01/24 00:14:59;;;;;;;5.50;1.27;;;7.60;19.70;;;;;;5042864;28;20450;-66
2024/01/24 00:17:26;;;;;;;5.30;1.20;;;7.60;19.50;;;;;;5046085;28;20490;-66
2024/01/24 00:19:54;;;;;;;7.00;1.73;;;7.60;19.30;;;;;;5047213;28;20462;-66
2024/01/24 00:22:21;;;;;;;4.50;0.90;;;7.60;19.20;;;;;;5049398;28;20462;-66
2024/01/24 00:24:47;;;;;;;4.33;1.13;;;7.60;19.30;;;;;;5046933;28;20996;-65
2024/01/24 00:27:14;;;;;;;4.60;0.80;;;7.60;19.30;;;;;;5046363;28;20486;-65
2024/01/24 00:29:41;;;;;;;3.93;0.97;;;7.60;19.20;;;;;;5047054;28;21025;-65
2024/01/24 00:32:08;;;;;;;6.40;1.27;;;7.60;19.10;;;;;;5046937;28;20478;-65
2024/01/24 00:34:34;;;;;;;5.57;1.17;;;7.70;19.00;;;;;;5048832;28;20963;-65
2024/01/24 00:37:02;;;;;;;6.00;1.17;;;7.70;18.90;;;;;;5048574;28;20478;-65
2024/01/24 00:39:29;;;;;;;5.60;1.20;;;7.70;18.70;;;;;;5047691;28;20466;-65
2024/01/24 00:41:59;;;;;;;5.33;1.20;;;7.70;18.90;;;;;;5048883;28;20466;-65
2024/01/24 00:44:25;;;;;;;5.07;1.40;;;7.70;18.80;;;;;;5047623;28;20862;-65
2024/01/24 00:46:52;;;;;;;4.43;0.87;;;7.80;18.70;;;;;;5044969;28;21450;-65
2024/01/24 00:49:19;;;;;;;5.67;1.30;;;7.80;18.60;;;;;;5046557;28;20458;-65
2024/01/24 00:51:46;;;;;;;3.63;0.90;;;7.80;18.50;;;;;;5046739;28;20828;-65
2024/01/24 00:54:14;;;;;;;6.53;1.10;;;7.90;18.40;;;;;;5047488;28;20465;-66
2024/01/24 00:56:41;;;;;;;4.47;0.93;;;7.90;18.30;;;;;;5046460;28;20866;-65
2024/01/24 00:59:07;;;;;;;5.17;1.40;;;7.90;18.30;;;;;;5048343;28;20489;-65
2024/01/24 01:01:34;;;;;;;10.33;1.87;;;7.90;18.10;;;;;;5046082;28;20581;-65
2024/01/24 01:04:01;;;;;;;4.30;1.10;;;7.90;18.00;;;;;;5045642;28;20469;-66
2024/01/24 01:06:27;;;;;;;8.23;1.60;;;7.90;17.90;;;;;;5047418;28;20450;-65
2024/01/24 01:08:54;;;;;;;4.80;1.27;;;8.00;17.80;;;;;;5044881;28;20472;-65
2024/01/24 01:11:22;;;;;;;6.80;1.20;;;8.00;17.80;;;;;;5046607;28;20537;-66
2024/01/24 01:13:49;;;;;;;3.90;1.30;;;8.00;17.80;;;;;;5043552;28;20458;-66
2024/01/24 01:16:16;;;;;;;5.20;1.17;;;8.00;17.80;;;;;;5046879;28;20459;-66
2024/01/24 01:18:42;;;;;;;3.77;1.13;;;8.00;17.60;;;;;;5045601;28;20465;-65
2024/01/24 01:21:09;;;;;;;5.77;1.30;;;8.00;17.60;;;;;;5040634;28;20512;-65
2024/01/24 01:23:36;;;;;;;5.13;1.20;;;8.10;17.60;;;;;;5045437;28;20484;-66
2024/01/24 01:26:03;;;;;;;6.40;0.93;;;8.10;17.30;;;;;;5046480;28;20486;-66
2024/01/24 01:28:31;;;;;;;5.40;1.10;;;8.10;17.40;;;;;;5045181;28;20998;-66
2024/01/24 01:30:57;;;;;;;7.20;1.30;;;8.20;17.20;;;;;;5043346;28;20470;-66
2024/01/24 01:33:24;;;;;;;4.40;0.97;;;8.20;16.90;;;;;;5047077;28;20479;-66
2024/01/24 01:35:51;;;;;;;5.07;1.33;;;8.20;16.90;;;;;;5048659;28;20828;-66
2024/01/24 01:38:18;;;;;;;5.87;1.27;;;8.20;16.80;;;;;;5049443;28;20487;-66
2024/01/24 01:40:45;;;;;;;6.77;1.20;;;8.20;16.70;;;;;;5048491;28;21016;-66
2024/01/24 01:43:14;;;;;;;4.33;1.20;;;8.20;16.60;;;;;;5045555;28;20469;-66
2024/01/24 01:45:42;;;;;;;5.67;1.07;;;8.20;16.70;;;;;;5044664;28;20614;-66
2024/01/24 01:48:10;;;;;;;4.23;0.90;;;8.20;16.70;;;;;;5041532;28;20501;-66
2024/01/24 01:50:38;;;;;;;4.90;0.70;;;8.20;16.40;;;;;;5046981;28;20469;-66
2024/01/24 01:53:06;;;;;;;7.87;1.10;;;8.20;16.50;;;;;;5044220;28;20459;-66
2024/01/24 01:55:35;;;;;;;3.47;0.80;;;8.20;16.50;;;;;;5045919;28;20954;-66
2024/01/24 01:58:02;;;;;;;4.50;0.90;;;8.20;16.30;;;;;;5048164;28;20998;-66
2024/01/24 02:00:29;;;;;;;4.97;1.10;;;8.20;16.40;;;;;;5041989;28;20473;-66
2024/01/24 02:02:57;;;;;;;4.50;1.00;;;8.30;16.40;;;;;;5045039;28;20982;-66
2024/01/24 02:05:24;;;;;;;3.53;0.70;;;8.20;16.40;;;;;;5046719;28;20492;-66
2024/01/24 02:07:50;;;;;;;3.73;1.03;;;8.20;16.40;;;;;;5044460;28;20486;-66
2024/01/24 02:10:17;;;;;;;5.07;1.00;;;8.20;16.40;;;;;;5045837;28;20462;-66
2024/01/24 02:12:44;;;;;;;3.97;1.00;;;8.20;16.20;;;;;;5047475;28;20502;-66
2024/01/24 02:15:11;;;;;;;7.23;1.80;;;8.20;16.10;;;;;;5048426;28;20462;-66
2024/01/24 02:17:37;;;;;;;4.17;0.60;;;8.30;15.90;;;;;;5044992;28;21041;-66
2024/01/24 02:20:09;;;;;;;7.50;1.40;;;8.30;15.70;;;;;;5047042;28;20466;-66
2024/01/24 02:22:36;;;;;;;5.27;1.10;;;8.30;15.60;;;;;;5046814;28;20481;-66
2024/01/24 02:25:05;;;;;;;4.47;1.00;;;8.30;15.50;;;;;;5046588;28;20989;-66
2024/01/24 02:27:31;;;;;;;6.97;1.77;;;8.30;15.20;;;;;;5052355;28;20553;-66
2024/01/24 02:29:58;;;;;;;4.00;0.80;;;8.40;15.30;;;;;;5058355;28;20480;-66
2024/01/24 02:32:25;;;;;;;4.60;0.70;;;8.40;15.20;;;;;;5046523;28;20477;-66
2024/01/24 02:34:52;;;;;;;5.57;0.87;;;8.40;15.20;;;;;;5045031;28;20455;-66
2024/01/24 02:37:19;;;;;;;6.73;1.30;;;8.40;15.20;;;;;;5043675;28;20565;-66
2024/01/24 02:39:46;;;;;;;4.30;0.90;;;8.50;15.30;;;;;;5046423;28;20454;-66
2024/01/24 02:42:15;;;;;;;7.60;0.90;;;8.50;15.40;;;;;;5043626;28;21052;-66
2024/01/24 02:44:41;;;;;;;7.07;1.17;;;8.50;15.70;;;;;;5047324;28;20458;-66
2024/01/24 02:47:08;;;;;;;6.50;1.10;;;8.50;16.00;;;;;;5044827;28;20492;-66
2024/01/24 02:49:35;;;;;;;4.33;0.70;;;8.50;16.30;;;;;;5048102;28;20469;-66
2024/01/24 02:52:02;;;;;;;5.30;1.03;;;8.50;16.60;;;;;;5047423;28;20458;-66
2024/01/24 02:54:29;;;;;;;4.53;1.00;;;8.60;16.90;;;;;;5043149;28;20477;-66
2024/01/24 02:56:55;;;;;;;5.00;0.83;;;8.70;17.00;;;;;;5045577;28;20485;-66
2024/01/24 02:59:24;;;;;;;8.60;1.27;;;8.70;17.00;;;;;;5046602;28;20836;-66
2024/01/24 03:01:50;;;;;;;3.80;0.90;;;8.70;16.90;;;;;;5046082;28;20998;-66
2024/01/24 03:04:17;;;;;;;5.80;1.10;;;8.80;16.70;;;;;;5045497;28;20469;-66
2024/01/24 03:06:44;;;;;;;3.83;1.37;;;8.80;16.60;;;;;;5045777;28;20523;-66
2024/01/24 03:09:11;;;;;;;4.73;1.00;;;8.80;16.50;;;;;;5046775;28;20466;-66
2024/01/24 03:11:37;;;;;;;5.17;0.93;;;8.90;16.50;;;;;;5047268;28;20454;-66
2024/01/24 03:14:04;;;;;;;3.83;0.90;;;8.90;16.40;;;;;;5047339;28;20457;-66
2024/01/24 03:16:32;;;;;;;5.40;1.00;;;8.90;16.50;;;;;;5044164;28;20994;-66
2024/01/24 03:18:59;;;;;;;4.10;0.90;;;8.90;16.60;;;;;;5045513;28;20458;-66
2024/01/24 03:21:25;;;;;;;7.13;1.73;;;8.90;16.70;;;;;;5047951;28;20453;-66
2024/01/24 03:23:52;;;;;;;3.60;0.67;;;8.90;17.00;;;;;;5047057;28;20466;-66
2024/01/24 03:26:19;;;;;;;6.67;1.00;;;8.90;17.20;;;;;;5045611;28;20496;-66
2024/01/24 03:28:45;;;;;;;3.63;0.73;;;9.00;17.60;;;;;;5046859;28;20465;-66
2024/01/24 03:31:12;;;;;;;3.00;0.67;;;9.00;17.60;;;;;;5042176;28;21280;-66
2024/01/24 03:33:40;;;;;;;7.03;1.67;;;9.00;17.90;;;;;;5040535;28;20543;-66
2024/01/24 03:36:08;;;;;;;3.83;0.80;;;9.10;17.80;;;;;;5042886;28;20963;-66
2024/01/24 03:38:35;;;;;;;4.50;1.10;;;9.10;17.90;;;;;;5046140;28;20481;-66
2024/01/24 03:41:02;;;;;;;3.57;0.60;;;9.10;18.00;;;;;;5046543;28;20469;-66
2024/01/24 03:43:28;;;;;;;3.43;0.77;;;9.20;17.90;;;;;;5047481;28;20454;-66
2024/01/24 03:45:55;;;;;;;3.33;0.80;;;9.20;17.70;;;;;;5047688;28;20482;-66
2024/01/24 03:48:22;;;;;;;5.17;1.20;;;9.20;17.50;;;;;;5050701;28;20477;-66
2024/01/24 03:50:50;;;;;;;6.60;1.20;;;9.30;17.40;;;;;;5048738;28;20476;-66
2024/01/24 03:53:16;;;;;;;7.33;1.20;;;9.30;17.20;;;;;;5052441;28;20469;-66
2024/01/24 03:55:43;;;;;;;6.03;1.10;;;9.30;17.00;;;;;;5049823;28;20458;-66
2024/01/24 03:58:10;;;;;;;3.67;0.87;;;9.30;16.90;;;;;;5044329;28;20994;-66
2024/01/24 04:00:37;;;;;;;3.17;0.60;;;9.30;16.80;;;;;;5045513;28;20467;-66
2024/01/24 04:03:04;;;;;;;4.13;1.00;;;9.40;16.70;;;;;;5048366;28;20463;-66
2024/01/24 04:05:31;;;;;;;5.27;1.20;;;9.40;16.50;;;;;;5049858;28;20488;-66
2024/01/24 04:07:59;;;;;;;5.13;0.93;;;9.40;16.20;;;;;;5051365;28;20474;-66
2024/01/24 04:10:25;;;;;;;4.80;0.90;;;9.40;16.20;;;;;;5051477;28;20837;-66
2024/01/24 04:12:52;;;;;;;5.23;1.30;;;9.40;16.00;;;;;;5052571;28;20465;-66
2024/01/24 04:15:19;;;;;;;4.10;0.80;;;9.40;15.90;;;;;;5040772;28;20458;-67
2024/01/24 04:17:46;;;;;;;5.63;0.97;;;9.40;15.80;;;;;;5050711;28;20520;-66
2024/01/24 04:20:13;;;;;;;6.17;1.40;;;9.50;15.80;;;;;;5052892;28;20462;-66
2024/01/24 04:22:39;;;;;;;4.63;0.77;;;9.50;15.80;;;;;;5047379;28;20537;-66
2024/01/24 04:25:10;;;;;;;4.00;0.87;;;9.50;15.80;;;;;;5048165;28;20458;-66
2024/01/24 04:27:37;;;;;;;4.33;0.70;;;9.50;15.80;;;;;;5047345;28;20489;-67
2024/01/24 04:30:05;;;;;;;4.37;0.97;;;9.60;16.00;;;;;;5046239;28;20895;-66
2024/01/24 04:32:32;;;;;;;5.43;1.17;;;9.60;16.10;;;;;;5045025;28;20486;-66
2024/01/24 04:34:58;;;;;;;3.77;0.90;;;9.60;16.10;;;;;;5048071;28;20878;-66
2024/01/24 04:37:25;;;;;;;4.60;0.90;;;9.70;16.20;;;;;;5049683;28;20478;-66
2024/01/24 04:39:52;;;;;;;4.67;0.80;;;9.70;16.30;;;;;;5046832;28;20473;-66
2024/01/24 04:42:20;;;;;;;4.40;1.17;;;9.70;16.30;;;;;;5048341;28;20543;-66
2024/01/24 04:44:47;;;;;;;3.93;0.90;;;9.80;16.40;;;;;;5048554;28;20471;-66
2024/01/24 04:47:14;;;;;;;5.20;0.90;;;9.80;16.30;;;;;;5045878;28;20482;-66
2024/01/24 04:49:41;;;;;;;3.80;0.80;;;9.80;16.30;;;;;;5048148;28;20467;-66
2024/01/24 04:52:07;;;;;;;5.30;1.27;;;9.90;16.40;;;;;;5053498;28;20462;-66
2024/01/24 04:54:35;;;;;;;4.53;1.40;;;9.90;16.40;;;;;;5047334;28;20473;-66
2024/01/24 04:57:02;;;;;;;4.40;0.90;;;9.90;16.40;;;;;;5043669;28;20478;-66
2024/01/24 04:59:30;;;;;;;6.60;0.83;;;10.00;16.50;;;;;;5045844;28;20466;-66
2024/01/24 05:01:56;;;;;;;4.07;0.80;;;10.00;16.50;;;;;;5046628;28;23790;-66
2024/01/24 05:04:23;;;;;;;5.00;0.90;;;10.10;16.60;;;;;;5050821;28;20462;-66
2024/01/24 05:06:50;;;;;;;4.87;1.00;;;10.10;16.70;;;;;;5049418;28;20481;-66
2024/01/24 05:09:17;;;;;;;6.40;1.33;;;10.10;16.70;;;;;;5045882;28;20964;-66
2024/01/24 05:11:45;;;;;;;4.30;1.07;;;10.20;16.70;;;;;;5045894;28;20597;-66
2024/01/24 05:14:11;;;;;;;3.90;0.80;;;10.20;16.90;;;;;;5053747;28;20469;-66
2024/01/24 05:16:42;;;;;;;3.30;0.67;;;10.20;17.00;;;;;;5046744;28;20856;-66
2024/01/24 05:19:09;;;;;;;3.93;1.57;;;10.30;17.00;;;;;;5048112;28;20989;-66
2024/01/24 05:21:41;;;;;;;6.17;1.00;;;10.30;17.00;;;;;;5062181;22;20498;-68
2024/01/24 05:24:08;;;;;;;4.33;0.60;;;10.40;17.00;;;;;;5046744;28;20537;-68
2024/01/24 05:26:35;;;;;;;3.90;0.90;;;10.40;17.00;;;;;;5046754;28;20584;-68
2024/01/24 05:29:02;;;;;;;3.90;0.70;;;10.50;17.00;;;;;;5051142;28;20465;-68
2024/01/24 05:31:29;;;;;;;3.60;0.67;;;10.50;17.10;;;;;;5048600;28;20687;-67
2024/01/24 05:33:57;;;;;;;3.50;0.87;;;10.50;17.10;;;;;;5046292;28;21057;-68
2024/01/24 05:36:24;;;;;;;5.30;1.27;;;10.60;17.30;;;;;;5044262;28;20463;-68
2024/01/24 05:38:51;;;;;;;4.53;0.80;;;10.60;17.20;;;;;;5047469;28;20466;-68
2024/01/24 05:41:17;;;;;;;7.80;1.30;;;10.60;17.20;;;;;;5042915;28;20945;-68
2024/01/24 05:43:44;;;;;;;3.50;0.70;;;10.70;17.40;;;;;;5048757;28;20458;-66
2024/01/24 05:46:11;;;;;;;3.67;0.73;;;10.70;17.40;;;;;;5047027;28;20998;-68
2024/01/24 05:48:38;;;;;;;4.70;0.83;;;10.70;17.40;;;;;;5044754;28;20845;-67
2024/01/24 05:51:06;;;;;;;3.97;1.47;;;10.70;17.40;;;;;;5043356;28;20831;-67
2024/01/24 05:53:33;;;;;;;4.07;1.20;;;10.80;17.50;;;;;;5047347;28;20454;-67
2024/01/24 05:56:00;;;;;;;4.53;1.00;;;10.80;17.40;;;;;;5044825;28;20815;-67
2024/01/24 05:58:27;;;;;;;4.33;0.80;;;10.80;17.40;;;;;;5045261;28;20482;-67
2024/01/24 06:00:54;;;;;;;4.90;0.80;;;10.90;17.30;;;;;;5045980;28;20995;-67
2024/01/24 06:03:21;;;;;;;3.20;0.90;;;10.90;17.40;;;;;;5046972;28;20465;-67
2024/01/24 06:05:48;;;;;;;3.60;1.00;;;10.90;17.40;;;;;;5045936;28;20473;-66
2024/01/24 06:08:16;;;;;;;3.67;0.97;;;10.90;17.40;;;;;;5040802;28;20861;-67
2024/01/24 06:10:43;;;;;;;5.70;1.27;;;10.90;17.50;;;;;;5041972;28;21034;-67
2024/01/24 06:13:10;;;;;;;3.40;0.83;;;10.90;17.60;;;;;;5044229;28;20462;-67
2024/01/24 06:15:37;;;;;;;3.33;0.73;;;10.90;17.70;;;;;;5046443;28;20462;-66
2024/01/24 06:18:05;;;;;;;3.80;0.90;;;10.90;17.90;;;;;;5046250;28;20521;-67
2024/01/24 06:20:31;;;;;;;3.60;0.67;;;11.00;17.90;;;;;;5046455;28;20462;-67
2024/01/24 06:22:58;;;;;;;3.77;1.03;;;11.00;18.10;;;;;;5044468;28;20465;-67
2024/01/24 06:25:26;;;;;;;5.90;1.40;;;11.00;18.20;;;;;;5042934;28;20469;-67
2024/01/24 06:27:53;;;;;;;3.43;0.83;;;11.00;18.30;;;;;;5044242;28;20481;-67
2024/01/24 06:30:20;;;;;;;4.70;0.80;;;11.00;18.30;;;;;;5045450;28;20965;-67
2024/01/24 06:32:47;;;;;;;5.97;1.50;;;11.00;18.30;;;;;;5042753;28;20820;-67
2024/01/24 06:35:14;;;;;;;4.17;1.20;;;11.10;18.40;;;;;;5043521;28;21019;-67
2024/01/24 06:37:41;;;;;;;3.90;0.67;;;11.10;18.60;;;;;;5046305;28;20474;-66
2024/01/24 06:40:10;;;;;;;5.07;0.87;;;11.10;18.80;;;;;;5048450;28;20480;-67
2024/01/24 06:42:40;;;;;;;3.90;1.03;;;11.10;18.90;;;;;;5048155;28;20869;-67
2024/01/24 06:45:08;;;;;;;3.17;0.77;;;11.10;19.00;;;;;;5050244;28;20458;-67
2024/01/24 06:47:35;;;;;;;4.00;1.20;;;11.10;19.10;;;;;;5044463;28;20508;-68
2024/01/24 06:50:02;;;;;;;3.80;1.00;;;11.10;19.50;;;;;;5046604;28;20810;-67
2024/01/24 06:52:30;;;;;;;3.20;0.90;;;11.20;20.00;;;;;;5043920;28;20474;-67
2024/01/24 06:54:57;;;;;;;4.43;1.23;;;11.20;19.60;;;;;;5042377;28;20461;-67
2024/01/24 06:57:24;;;;;;;3.20;0.70;;;11.20;19.70;;;;;;5038748;28;20569;-66
2024/01/24 06:59:53;;;;;;;5.93;1.00;;;11.20;20.40;;;;;;5040076;28;20930;-67
2024/01/24 07:02:20;;;;;;;3.63;0.70;;;11.20;20.50;;;;;;5044696;28;20978;-67
2024/01/24 07:04:46;;;;;;;3.90;1.03;;;11.30;20.80;;;;;;5046153;28;20467;-67
2024/01/24 07:07:14;;;;;;;4.03;0.83;;;11.30;21.60;;;;;;5041591;28;20856;-67
2024/01/24 07:09:41;;;;;;;4.53;1.10;;;11.40;21.10;;;;;;5045004;28;20557;-67
2024/01/24 07:12:08;;;;;;;3.73;0.90;;;11.40;21.00;;;;;;5044939;28;20473;-67
2024/01/24 07:14:35;;;;;;;5.93;0.80;;;11.40;20.90;;;;;;5046943;28;20466;-67
2024/01/24 07:17:05;;;;;;;5.37;1.00;;;11.50;21.00;;;;;;5042650;28;20481;-67
2024/01/24 07:19:32;;;;;;;3.00;0.73;;;11.50;21.00;;;;;;5043000;28;20523;-67
2024/01/24 07:21:58;;;;;;;5.33;1.00;;;11.50;20.90;;;;;;5058471;28;20454;-67
2024/01/24 07:24:25;;;;;;;5.17;0.80;;;11.60;20.90;;;;;;5047907;28;20473;-67
2024/01/24 07:26:52;;;;;;;5.80;1.00;;;11.70;21.00;;;;;;5047478;28;20489;-67
2024/01/24 07:29:20;;;;;;;6.67;1.90;;;11.70;20.80;;;;;;5045859;28;20469;-69
2024/01/24 07:31:47;;;;;;;4.20;1.10;;;11.60;20.70;;;;;;5051201;28;20494;-69
2024/01/24 07:34:16;;;;;;;5.33;1.13;;;11.70;20.60;;;;;;5048902;28;21119;-69
2024/01/24 07:36:43;;;;;;;5.83;0.80;;;11.70;20.50;;;;;;5049294;28;20824;-69
2024/01/24 07:39:09;;;;;;;3.37;0.70;;;11.70;20.40;;;;;;5044910;28;20461;-70
2024/01/24 07:41:36;;;;;;;4.37;1.00;;;11.80;20.30;;;;;;5046508;28;20459;-69
2024/01/24 07:44:04;;;;;;;5.10;1.03;;;11.80;20.30;;;;;;5039571;28;20458;-69
2024/01/24 07:46:32;;;;;;;3.70;0.90;;;11.80;20.10;;;;;;5045614;28;20579;-69
2024/01/24 07:48:59;;;;;;;3.40;0.70;;;11.90;20.10;;;;;;5044768;28;20454;-69
2024/01/24 07:51:27;;;;;;;3.60;0.90;;;11.90;20.00;;;;;;5050542;28;20939;-71
2024/01/24 07:53:54;;;;;;;4.03;0.80;;;11.90;20.00;;;;;;5052831;28;20465;-70
2024/01/24 07:56:21;;;;;;;5.00;0.80;;;11.90;20.00;;;;;;5049565;28;20484;-70
2024/01/24 07:58:48;;;;;;;3.80;1.10;;;12.00;19.90;;;;;;5045131;28;20558;-70
2024/01/24 08:01:17;;;;;;;4.83;0.93;;;12.00;19.90;;;;;;5042788;28;20474;-70
2024/01/24 08:03:44;;;;;;;4.70;0.93;;;12.00;19.90;;;;;;5048244;28;20946;-70
2024/01/24 08:06:10;;;;;;;5.03;1.10;;;12.00;19.90;;;;;;5049688;28;20466;-70
2024/01/24 08:08:39;;;;;;;3.50;0.77;;;12.00;19.60;;;;;;5050466;28;20481;-70
2024/01/24 08:11:06;;;;;;;4.07;0.90;;;12.10;19.60;;;;;;5048912;28;20457;-69
2024/01/24 08:13:33;;;;;;;4.10;0.80;;;12.10;19.60;;;;;;5053091;28;20496;-70
2024/01/24 08:16:01;;;;;;;4.43;0.80;;;12.10;19.50;;;;;;5050297;28;21156;-69
2024/01/24 08:18:27;;;;;;;3.40;0.87;;;12.10;19.50;;;;;;5051096;28;20841;-70
2024/01/24 08:20:55;;;;;;;3.10;0.70;;;12.10;19.40;;;;;;5047148;28;20466;-69
2024/01/24 08:23:22;;;;;;;4.70;0.80;;;12.20;19.30;;;;;;5046872;28;20941;-69
2024/01/24 08:25:50;;;;;;;5.57;1.03;;;12.20;19.20;;;;;;5050251;28;20501;-69
2024/01/24 08:28:17;;;;;;;3.60;0.80;;;12.20;19.10;;;;;;5044416;28;20496;-70
2024/01/24 08:30:44;;;;;;;3.47;0.67;;;12.20;19.10;;;;;;5049715;28;20473;-70
2024/01/24 08:33:10;;;;;;;4.50;0.97;;;12.20;19.10;;;;;;5053414;28;20458;-70
2024/01/24 08:35:37;;;;;;;4.73;0.80;;;12.20;18.90;;;;;;5049383;28;20454;-69
2024/01/24 08:38:05;;;;;;;4.20;0.80;;;12.40;18.90;;;;;;5049604;28;20478;-69
2024/01/24 08:40:32;;;;;;;3.17;0.73;;;12.40;18.60;;;;;;5049701;28;21186;-70
2024/01/24 08:43:01;;;;;;;3.20;0.60;;;12.50;18.60;;;;;;5050285;28;20461;-71
2024/01/24 08:45:28;;;;;;;4.37;0.70;;;12.60;18.20;;;;;;5049231;28;20545;-70
2024/01/24 08:47:55;;;;;;;3.57;0.73;;;12.60;18.10;;;;;;5049562;28;20489;-70
2024/01/24 08:50:24;;;;;;;4.77;0.80;;;12.60;17.90;;;;;;5052179;28;20449;-70
2024/01/24 08:52:51;;;;;;;5.23;0.90;;;12.60;18.00;;;;;;5049481;28;20454;-70
2024/01/24 08:55:18;;;;;;;15.13;1.80;;;12.60;18.00;;;;;;5048905;28;20549;-70
2024/01/24 08:57:45;;;;;;;3.80;0.90;;;12.60;18.00;;;;;;5051933;28;20463;-70
2024/01/24 09:00:14;;;;;;;3.07;0.60;;;12.60;18.10;;;;;;5043733;28;20453;-70
2024/01/24 09:02:41;;;;;;;4.10;0.60;;;12.60;18.10;;;;;;5045294;28;20469;-70
2024/01/24 09:05:09;;;;;;;3.70;0.77;;;12.60;18.10;;;;;;5047815;28;20461;-70
2024/01/24 09:07:36;;;;;;;3.20;0.80;;;12.60;18.10;;;;;;5051115;28;20571;-70
2024/01/24 09:10:03;;;;;;;3.67;0.60;;;12.70;17.90;;;;;;5049323;28;20450;-70
2024/01/24 09:12:31;;;;;;;2.90;0.50;;;12.90;17.70;;;;;;5055544;28;20536;-69
2024/01/24 09:14:57;;;;;;;3.80;0.67;;;13.00;17.30;;;;;;5053298;28;20453;-70
2024/01/24 09:17:26;;;;;;;3.03;0.50;;;13.10;17.70;;;;;;5045475;28;20470;-70
2024/01/24 09:19:53;;;;;;;3.90;0.70;;;13.30;17.00;;;;;;5049667;28;20457;-70
2024/01/24 09:22:20;;;;;;;3.40;0.90;;;13.40;16.40;;;;;;5050123;28;20811;-69
2024/01/24 09:24:46;;;;;;;3.23;0.67;;;13.50;16.10;;;;;;5050176;28;20509;-70
2024/01/24 09:27:13;;;;;;;3.40;0.80;;;13.60;16.20;;;;;;5048021;28;20521;-70
2024/01/24 09:29:40;;;;;;;3.53;0.50;;;13.70;15.40;;;;;;5048187;28;20454;-69
2024/01/24 09:32:07;;;;;;;3.00;0.63;;;13.70;15.20;;;;;;5048643;28;20482;-71
2024/01/24 09:34:35;;;;;;;4.23;0.70;;;13.70;15.30;;;;;;5046502;28;20450;-70
2024/01/24 09:37:02;;;;;;;3.37;0.60;;;13.70;15.40;;;;;;5046367;28;20492;-71
2024/01/24 09:39:29;;;;;;;4.13;1.10;;;14.00;14.90;;;;;;5047425;28;20470;-70
2024/01/24 09:41:57;;;;;;;4.70;0.70;;;14.20;14.50;;;;;;5046397;28;21254;-70
2024/01/24 09:44:30;;;;;;;3.63;0.70;;;14.60;13.60;;;;;;5047852;28;20462;-70
2024/01/24 09:46:57;;;;;;;3.27;0.63;;;14.90;13.20;;;;;;5050301;28;20982;-70
2024/01/24 09:49:24;;;;;;;3.10;0.63;;;15.30;12.00;;;;;;5049100;28;20842;-70
2024/01/24 09:51:54;;;;;;;3.10;0.73;;;15.40;11.30;;;;;;5049175;28;20465;-70
2024/01/24 09:54:22;;;;;;;3.10;0.67;;;15.30;11.70;;;;;;5051880;28;20458;-70
2024/01/24 09:56:49;;;;;;;3.20;0.60;;;15.20;11.30;;;;;;5050000;28;20470;-70
2024/01/24 09:59:16;;;;;;;3.07;0.67;;;15.10;11.70;;;;;;5044001;28;20465;-70
2024/01/24 10:01:43;;;;;;;3.00;0.63;;;14.90;12.20;;;;;;5046472;28;20466;-70
2024/01/24 10:04:14;;;;;;;3.03;0.70;;;15.00;12.20;;;;;;5047690;28;20979;-70
2024/01/24 10:06:42;;;;;;;3.53;0.50;;;15.00;12.20;;;;;;5047834;28;20481;-70
2024/01/24 10:09:10;;;;;;;2.90;0.50;;;15.10;12.30;;;;;;5047811;28;20486;-70
2024/01/24 10:11:37;;;;;;;3.17;0.60;;;15.30;12.80;;;;;;5048523;28;20450;-70
2024/01/24 10:14:04;;;;;;;3.23;0.60;;;15.90;11.70;;;;;;5047535;28;20449;-70
2024/01/24 10:16:30;;;;;;;3.67;0.77;;;16.20;10.40;;;;;;5050905;28;20926;-70
2024/01/24 10:18:58;;;;;;;2.80;0.40;;;16.10;9.70;;;;;;5044077;28;20454;-70
2024/01/24 10:21:26;;;;;;;4.30;0.60;;;15.90;9.80;;;;;;5048397;28;20509;-70
2024/01/24 10:23:54;;;;;;;3.57;0.70;;;15.70;10.30;;;;;;5045936;28;20445;-70
2024/01/24 10:26:23;;;;;;;4.13;0.63;;;15.50;10.70;;;;;;5043869;28;20528;-70
2024/01/24 10:28:50;;;;;;;3.53;0.97;;;15.30;11.00;;;;;;5043917;28;20531;-70
2024/01/24 10:31:19;;;;;;;3.20;0.60;;;15.20;11.60;;;;;;5043728;28;20992;-70
2024/01/24 10:33:48;;;;;;;3.00;0.57;;;15.00;11.80;;;;;;5045105;28;20450;-70
2024/01/24 10:36:15;;;;;;;3.00;0.60;;;14.90;12.10;;;;;;5046978;28;20454;-70
2024/01/24 10:38:48;;;;;;;3.20;0.63;;;14.70;12.40;;;;;;5047897;28;20977;-70
2024/01/24 10:41:16;;;;;;;3.47;0.50;;;14.60;12.90;;;;;;5041528;28;20827;-70
2024/01/24 10:43:48;;;;;;;3.50;1.00;;;14.50;13.20;;;;;;5039769;28;20504;-70
2024/01/24 10:46:19;;;;;;;3.20;1.03;;;14.40;13.40;;;;;;5039806;28;20466;-70
2024/01/24 10:48:47;;;;;;;3.60;1.20;;;14.30;13.70;;;;;;5046103;28;20477;-70
2024/01/24 10:51:13;;;;;;;4.87;1.37;;;14.20;14.10;;;;;;5046575;28;20469;-70
2024/01/24 10:53:41;;;;;;;3.77;0.90;;;14.10;14.30;;;;;;5048155;28;20457;-70
2024/01/24 10:56:09;;;;;;;3.00;0.60;;;14.10;14.60;;;;;;5047098;28;20961;-70
2024/01/24 10:58:37;;;;;;;3.50;0.67;;;14.00;14.60;;;;;;5051672;28;20469;-69
2024/01/24 11:01:05;;;;;;;3.90;0.67;;;14.00;14.90;;;;;;5050317;28;20470;-70
2024/01/24 11:03:32;;;;;;;3.27;0.67;;;14.00;15.10;;;;;;5052043;28;20452;-69
2024/01/24 11:06:03;;;;;;;3.00;0.63;;;14.20;15.40;;;;;;5050689;28;20462;-70
2024/01/24 11:08:35;;;;;;;3.77;0.60;;;14.40;14.70;;;;;;5047213;28;21013;-71
2024/01/24 11:11:08;;;;;;;3.40;0.60;;;14.50;14.30;;;;;;5050973;28;20457;-70
2024/01/24 11:13:35;;;;;;;3.10;0.50;;;14.60;14.00;;;;;;5052489;28;20453;-70
2024/01/24 11:16:28;;;;;;;2.80;0.40;;;14.50;13.80;;;;;;5050904;28;20473;-70
2024/01/24 11:18:58;;;;;;;3.27;0.70;;;14.50;13.80;;;;;;5053908;28;20462;-70
2024/01/24 11:21:28;;;;;;;4.40;0.57;;;14.40;13.90;;;;;;5051162;28;20457;-71
2024/01/24 11:23:55;;;;;;;4.30;0.63;;;14.40;14.50;;;;;;5052564;28;20450;-70
2024/01/24 11:26:49;;;;;;;4.27;0.60;;;14.30;14.80;;;;;;5050009;28;20457;-70
2024/01/24 11:29:16;;;;;;;3.50;0.67;;;14.20;15.30;;;;;;5049164;28;20481;-70
2024/01/24 11:31:44;;;;;;;2.80;0.50;;;14.20;15.50;;;;;;5049447;28;20478;-70
2024/01/24 11:34:12;;;;;;;3.70;0.47;;;14.20;15.60;;;;;;5050930;28;20458;-71
2024/01/24 11:36:45;;;;;;;2.80;0.40;;;14.20;15.20;;;;;;5054011;28;20474;-71
2024/01/24 11:39:35;;;;;;;2.90;0.50;;;14.20;15.10;;;;;;5044693;28;20454;-71
2024/01/24 11:42:36;;;;;;;3.00;0.60;;;14.20;15.20;;;;;;5045401;28;20561;-70
2024/01/24 11:45:19;;;;;;;2.90;0.40;;;14.10;15.60;;;;;;5048891;28;20493;-71
2024/01/24 11:47:48;;;;;;;3.73;0.50;;;14.10;16.10;;;;;;5048687;28;20974;-71
2024/01/24 11:50:15;;;;;;;2.73;0.40;;;14.00;17.00;;;;;;5047545;28;20497;-71
2024/01/24 11:52:44;;;;;;;3.00;0.50;;;14.00;16.60;;;;;;5046998;28;20552;-71
2024/01/24 11:55:11;;;;;;;3.00;0.50;;;13.90;16.70;;;;;;5048223;28;21304;-71
2024/01/24 11:57:38;;;;;;;3.30;0.60;;;13.90;16.90;;;;;;5048085;28;20482;-71
2024/01/24 12:00:07;;;;;;;2.80;0.50;;;13.80;17.10;;;;;;5048872;28;20461;-71
2024/01/24 12:02:34;;;;;;;2.97;0.50;;;13.80;17.30;;;;;;5026022;28;20506;-70
2024/01/24 12:05:04;;;;;;;3.00;0.40;;;13.80;17.30;;;;;;5041757;28;20469;-71
2024/01/24 12:07:31;;;;;;;2.80;0.40;;;13.80;17.40;;;;;;5039802;28;20478;-70
2024/01/24 12:09:58;;;;;;;2.93;0.50;;;13.90;17.30;;;;;;5040929;28;20833;-69
2024/01/24 12:12:27;;;;;;;3.87;0.67;;;14.00;16.90;;;;;;5039514;28;20473;-69
2024/01/24 12:14:55;;;;;;;3.27;0.80;;;14.00;16.70;;;;;;5047098;28;20497;-71
2024/01/24 12:17:22;;;;;;;3.37;0.70;;;14.00;16.70;;;;;;5043362;28;20474;-70
2024/01/24 12:19:49;;;;;;;3.10;0.90;;;14.00;16.60;;;;;;5044953;28;20888;-70
2024/01/24 12:22:17;;;;;;;3.97;0.80;;;13.90;16.90;;;;;;5042655;28;20835;-70
2024/01/24 12:24:44;;;;;;;2.80;0.40;;;13.90;17.30;;;;;;5046857;28;20458;-70
2024/01/24 12:27:12;;;;;;;2.93;0.50;;;13.80;17.20;;;;;;5045263;28;21017;-70
2024/01/24 12:29:39;;;;;;;2.90;0.43;;;13.80;17.80;;;;;;5048927;28;20529;-70
2024/01/24 12:32:08;;;;;;;2.73;0.40;;;13.80;18.30;;;;;;5043682;28;20481;-70
2024/01/24 12:34:35;;;;;;;2.90;0.50;;;13.70;18.40;;;;;;5046642;28;20474;-70
2024/01/24 12:37:02;;;;;;;3.20;0.50;;;13.70;18.20;;;;;;5047513;28;20477;-70
2024/01/24 12:42:00;;;;;;;2.77;0.30;;;13.70;18.10;;;;;;5039981;28;20532;-68
2024/01/24 12:44:27;;;;;;;3.57;0.50;;;13.70;18.20;;;;;;5039055;28;20461;-69
2024/01/24 12:46:56;;;;;;;4.00;0.50;;;13.60;18.60;;;;;;5044912;28;20478;-68
2024/01/24 12:49:23;;;;;;;3.20;0.87;;;13.70;18.00;;;;;;5048954;28;20482;-68
2024/01/24 12:51:51;;;;;;;3.30;0.40;;;13.70;18.00;;;;;;5045997;28;20541;-67
2024/01/24 12:54:18;;;;;;;3.77;0.70;;;13.70;18.00;;;;;;5045565;28;21289;-69